createdAt,value
2023-02-03T00:02:42.160Z,89.60
2023-02-03T00:05:48.217Z,89.60
2023-02-03T00:08:57.600Z,89.60
2023-02-03T00:12:01.393Z,89.60
2023-02-03T00:15:08.308Z,89.60
2023-02-03T00:18:12.066Z,89.60
2023-02-03T00:21:19.801Z,89.60
2023-02-03T00:24:23.595Z,89.60
2023-02-03T00:27:29.383Z,89.60
2023-02-03T00:30:35.322Z,89.60
2023-02-03T00:33:41.113Z,89.60
2023-02-03T00:36:47.832Z,89.60
2023-02-03T00:39:54.097Z,89.60
2023-02-03T00:42:57.989Z,89.60
2023-02-03T00:46:03.901Z,89.60
2023-02-03T00:49:07.773Z,89.60
2023-02-03T00:52:15.904Z,89.60
2023-02-03T00:55:19.705Z,89.60
2023-02-03T00:58:27.218Z,89.60
2023-02-03T01:01:31.050Z,89.60
2023-02-03T01:04:36.901Z,89.70
2023-02-03T01:07:43.071Z,89.70
2023-02-03T01:10:48.917Z,89.70
2023-02-03T01:13:54.211Z,89.70
2023-02-03T01:17:00.262Z,89.70
2023-02-03T01:20:04.199Z,89.60
2023-02-03T01:23:11.919Z,89.60
2023-02-03T01:26:21.131Z,89.60
2023-02-03T01:29:27.063Z,89.60
2023-02-03T01:32:30.699Z,89.70
2023-02-03T01:35:37.292Z,89.70
2023-02-03T01:38:44.184Z,89.60
2023-02-03T01:41:51.667Z,89.60
2023-02-03T01:44:55.476Z,89.50
2023-02-03T01:48:01.758Z,89.60
2023-02-03T01:51:06.963Z,89.60
2023-02-03T01:54:20.344Z,89.60
2023-02-03T01:57:29.041Z,89.60
2023-02-03T02:00:34.927Z,89.60
2023-02-03T02:03:42.972Z,89.50
2023-02-03T02:06:50.652Z,89.60
2023-02-03T02:09:56.914Z,89.50
2023-02-03T02:13:05.266Z,89.50
2023-02-03T02:16:13.692Z,90.00
2023-02-03T02:19:45.011Z,89.50
2023-02-03T02:23:08.784Z,89.50
2023-02-03T02:26:47.518Z,89.50
2023-02-03T02:30:19.451Z,89.50
2023-02-03T02:33:38.374Z,89.50
2023-02-03T02:36:52.933Z,89.50
2023-02-03T02:40:07.247Z,89.40
2023-02-03T02:43:16.009Z,89.40
2023-02-03T02:46:26.829Z,89.40
2023-02-03T02:49:39.757Z,89.40
2023-02-03T02:52:47.812Z,89.50
2023-02-03T02:55:54.753Z,89.40
2023-02-03T02:59:03.688Z,89.40
2023-02-03T03:02:07.515Z,89.40
2023-02-03T03:05:15.864Z,89.40
2023-02-03T03:08:30.402Z,89.30
2023-02-03T03:11:42.038Z,89.30
2023-02-03T03:14:50.037Z,89.30
2023-02-03T03:17:59.743Z,89.30
2023-02-03T03:21:07.202Z,89.30
2023-02-03T03:24:17.383Z,89.30
2023-02-03T03:27:24.523Z,89.30
2023-02-03T03:30:36.423Z,89.30
2023-02-03T03:33:40.697Z,89.20
2023-02-03T03:36:53.512Z,89.20
2023-02-03T03:39:58.916Z,89.20
2023-02-03T03:43:12.801Z,89.20
2023-02-03T03:46:21.647Z,89.10
2023-02-03T03:49:29.793Z,89.10
2023-02-03T03:52:38.478Z,89.20
2023-02-03T03:55:48.601Z,89.10
2023-02-03T03:58:54.739Z,89.10
2023-02-03T04:02:03.809Z,89.10
2023-02-03T04:05:09.892Z,89.10
2023-02-03T04:08:17.741Z,89.10
2023-02-03T04:11:34.540Z,89.10
2023-02-03T04:14:40.341Z,89.10
2023-02-03T04:17:44.118Z,89.00
2023-02-03T04:20:49.938Z,89.00
2023-02-03T04:23:56.298Z,89.00
2023-02-03T04:27:04.291Z,89.00
2023-02-03T04:30:11.406Z,88.90
2023-02-03T04:33:17.160Z,88.90
2023-02-03T04:36:20.950Z,88.90
2023-02-03T04:39:28.661Z,88.90
2023-02-03T04:42:32.493Z,88.90
2023-02-03T04:45:38.933Z,88.90
2023-02-03T04:48:42.708Z,88.90
2023-02-03T04:51:50.934Z,88.90
2023-02-03T04:54:56.738Z,88.90
2023-02-03T04:58:03.349Z,88.90
2023-02-03T05:01:10.712Z,88.80
2023-02-03T05:04:16.664Z,88.80
2023-02-03T05:07:20.277Z,88.80
2023-02-03T05:10:28.276Z,88.70
2023-02-03T05:13:32.354Z,88.70
2023-02-03T05:16:38.198Z,88.70
2023-02-03T05:19:42.003Z,88.70
2023-02-03T05:22:47.860Z,88.70
2023-02-03T05:25:53.592Z,88.70
2023-02-03T05:28:59.432Z,88.70
2023-02-03T05:32:03.318Z,88.70
2023-02-03T05:35:10.047Z,88.60
2023-02-03T05:38:13.795Z,88.60
2023-02-03T05:41:34.662Z,88.70
2023-02-03T05:44:38.497Z,88.70
2023-02-03T05:47:44.430Z,88.60
2023-02-03T05:50:47.959Z,88.60
2023-02-03T05:53:54.485Z,88.60
2023-02-03T05:57:00.176Z,88.50
2023-02-03T06:00:07.759Z,88.60
2023-02-03T06:03:15.842Z,88.60
2023-02-03T06:06:21.816Z,88.50
2023-02-03T06:09:25.621Z,88.50
2023-02-03T06:12:33.646Z,88.50
2023-02-03T06:15:37.657Z,88.40
2023-02-03T06:18:43.497Z,88.40
2023-02-03T06:21:47.238Z,88.50
2023-02-03T06:24:53.251Z,88.50
2023-02-03T06:27:59.018Z,88.40
2023-02-03T06:31:05.092Z,89.00
2023-02-03T06:34:08.926Z,88.40
2023-02-03T06:37:14.893Z,88.40
2023-02-03T06:40:18.486Z,88.40
2023-02-03T06:43:26.234Z,88.40
2023-02-03T06:46:30.280Z,88.30
2023-02-03T06:49:36.203Z,88.30
2023-02-03T06:52:40.087Z,88.30
2023-02-03T06:55:47.185Z,88.30
2023-02-03T06:58:52.899Z,88.20
2023-02-03T07:01:58.731Z,88.30
2023-02-03T07:05:02.428Z,88.20
2023-02-03T07:08:08.200Z,88.20
2023-02-03T07:11:12.149Z,88.20
2023-02-03T07:14:20.154Z,88.20
2023-02-03T07:17:23.924Z,88.10
2023-02-03T07:20:31.898Z,88.10
2023-02-03T07:23:36.016Z,88.10
2023-02-03T07:26:41.900Z,88.10
2023-02-03T07:29:47.653Z,88.10
2023-02-03T07:32:55.491Z,88.00
2023-02-03T07:36:01.233Z,88.00
2023-02-03T07:39:07.179Z,88.10
2023-02-03T07:42:10.740Z,88.10
2023-02-03T07:45:26.074Z,88.00
2023-02-03T07:48:29.909Z,88.00
2023-02-03T07:51:35.749Z,88.00
2023-02-03T07:54:39.504Z,88.00
2023-02-03T07:57:45.358Z,88.00
2023-02-03T08:00:51.056Z,88.00
2023-02-03T08:03:56.901Z,88.00
2023-02-03T08:07:00.705Z,88.00
2023-02-03T08:10:07.696Z,87.90
2023-02-03T08:13:11.523Z,87.90
2023-02-03T08:16:19.285Z,87.90
2023-02-03T08:19:26.807Z,87.90
2023-02-03T08:22:32.613Z,87.80
2023-02-03T08:25:36.430Z,87.90
2023-02-03T08:28:42.271Z,87.90
2023-02-03T08:31:48.250Z,87.90
2023-02-03T08:34:55.421Z,87.90
2023-02-03T08:37:59.259Z,87.90
2023-02-03T08:41:11.072Z,87.90
2023-02-03T08:44:15.239Z,87.80
2023-02-03T08:47:24.006Z,87.80
2023-02-03T08:50:28.105Z,87.80
2023-02-03T08:53:34.072Z,87.80
2023-02-03T08:56:37.871Z,87.80
2023-02-03T08:59:45.088Z,87.80
2023-02-03T09:02:50.828Z,87.80
2023-02-03T09:05:56.771Z,87.80
2023-02-03T09:09:00.722Z,87.80
2023-02-03T09:12:07.812Z,88.40
2023-02-03T09:15:12.287Z,87.80
2023-02-03T09:18:20.234Z,87.80
2023-02-03T09:21:33.585Z,87.70
2023-02-03T09:24:46.077Z,87.70
2023-02-03T09:27:52.100Z,87.80
2023-02-03T09:31:01.694Z,87.80
2023-02-03T09:34:07.525Z,87.80
2023-02-03T09:37:13.570Z,87.70
2023-02-03T09:40:20.543Z,87.70
2023-02-03T09:43:38.419Z,87.70
2023-02-03T09:46:44.782Z,87.60
2023-02-03T09:49:55.425Z,87.70
2023-02-03T09:53:00.367Z,87.70
2023-02-03T09:56:06.691Z,87.70
2023-02-03T09:59:11.667Z,87.70
2023-02-03T10:02:48.199Z,87.70
2023-02-03T10:06:15.390Z,87.60
2023-02-03T10:09:34.231Z,87.60
2023-02-03T10:12:55.638Z,87.60
2023-02-03T10:16:20.132Z,87.70
2023-02-03T10:19:28.316Z,87.60
2023-02-03T10:22:41.939Z,87.60
2023-02-03T10:25:56.976Z,87.60
2023-02-03T10:29:09.630Z,87.60
2023-02-03T10:32:14.715Z,87.50
2023-02-03T10:35:21.429Z,87.60
2023-02-03T10:38:39.957Z,87.50
2023-02-03T10:41:46.052Z,87.60
2023-02-03T10:44:54.735Z,87.50
2023-02-03T10:48:01.631Z,87.50
2023-02-03T10:51:05.739Z,87.50
2023-02-03T10:54:29.412Z,87.50
2023-02-03T10:57:38.619Z,87.50
2023-02-03T11:00:45.266Z,87.50
2023-02-03T11:04:02.624Z,87.50
2023-02-03T11:07:24.408Z,87.50
2023-02-03T11:10:35.341Z,87.60
2023-02-03T11:13:41.300Z,87.50
2023-02-03T11:16:46.680Z,87.60
2023-02-03T11:19:54.692Z,87.60
2023-02-03T11:22:58.718Z,87.40
2023-02-03T11:26:15.736Z,87.50
2023-02-03T11:29:24.101Z,87.60
2023-02-03T11:32:35.310Z,87.60
2023-02-03T11:35:39.952Z,87.60
2023-02-03T11:38:45.874Z,87.60
2023-02-03T11:41:51.882Z,87.70
2023-02-03T11:45:15.629Z,87.70
2023-02-03T11:48:30.403Z,87.60
2023-02-03T11:51:44.667Z,87.70
2023-02-03T11:54:57.850Z,87.70
2023-02-03T11:58:22.808Z,87.70
2023-02-03T12:01:49.427Z,87.70
2023-02-03T12:05:21.437Z,87.70
2023-02-03T12:08:47.281Z,87.60
2023-02-03T12:12:38.974Z,87.70
2023-02-03T12:16:02.435Z,87.60
2023-02-03T12:19:15.501Z,87.50
2023-02-03T12:22:30.213Z,87.50
2023-02-03T12:25:50.415Z,87.50
2023-02-03T12:29:04.201Z,87.50
2023-02-03T12:32:19.557Z,87.50
2023-02-03T12:35:28.627Z,87.40
2023-02-03T12:38:41.538Z,87.30
2023-02-03T12:41:52.303Z,87.30
2023-02-03T12:45:02.833Z,87.30
2023-02-03T12:48:14.066Z,87.20
2023-02-03T12:51:29.901Z,87.20
2023-02-03T12:54:44.717Z,87.20
2023-02-03T12:57:58.123Z,87.10
2023-02-03T13:01:06.687Z,87.10
2023-02-03T13:04:20.058Z,87.00
2023-02-03T13:07:28.773Z,87.60
2023-02-03T13:10:41.384Z,86.90
2023-02-03T13:13:52.455Z,86.90
2023-02-03T13:17:02.396Z,86.80
2023-02-03T13:20:18.435Z,86.80
2023-02-03T13:23:25.486Z,86.70
2023-02-03T13:27:05.286Z,86.70
2023-02-03T13:30:39.621Z,86.60
2023-02-03T13:34:09.110Z,86.60
2023-02-03T13:37:53.455Z,86.50
2023-02-03T13:41:03.989Z,86.50
2023-02-03T13:44:15.126Z,86.50
2023-02-03T13:47:22.880Z,86.40
2023-02-03T13:50:32.362Z,86.40
2023-02-03T13:53:41.347Z,86.40
2023-02-03T13:56:56.853Z,86.20
2023-02-03T14:00:00.730Z,86.10
2023-02-03T14:03:17.702Z,86.20
2023-02-03T14:06:58.228Z,86.10
2023-02-03T14:10:17.625Z,86.00
2023-02-03T14:13:23.075Z,86.00
2023-02-03T14:16:35.857Z,86.00
2023-02-03T14:19:56.443Z,86.00
2023-02-03T14:23:10.207Z,85.70
2023-02-03T14:26:26.672Z,85.80
2023-02-03T14:29:35.548Z,85.70
2023-02-03T14:32:57.311Z,85.70
2023-02-03T14:36:03.132Z,85.60
2023-02-03T14:39:44.796Z,85.70
2023-02-03T14:43:19.250Z,85.50
2023-02-03T14:46:53.981Z,85.50
2023-02-03T14:50:22.832Z,85.50
2023-02-03T14:53:40.477Z,85.40
2023-02-03T14:57:03.085Z,85.50
2023-02-03T15:00:27.039Z,85.40
2023-02-03T15:03:34.558Z,85.40
2023-02-03T15:06:41.410Z,85.40
2023-02-03T15:09:50.779Z,85.30
2023-02-03T15:12:56.391Z,85.40
2023-02-03T15:16:05.774Z,85.60
2023-02-03T15:19:18.578Z,85.20
2023-02-03T15:22:27.813Z,85.20
2023-02-03T15:25:32.860Z,85.10
2023-02-03T15:28:38.683Z,85.10
2023-02-03T15:31:48.206Z,85.10
2023-02-03T15:34:54.890Z,85.00
2023-02-03T15:38:04.036Z,85.00
2023-02-03T15:41:17.848Z,84.90
2023-02-03T15:44:29.984Z,84.90
2023-02-03T15:47:39.452Z,84.80
2023-02-03T15:50:47.251Z,84.90
2023-02-03T15:53:57.723Z,84.80
2023-02-03T15:57:05.758Z,84.80
2023-02-03T16:00:25.647Z,85.40
2023-02-03T16:03:38.775Z,84.70
2023-02-03T16:06:48.628Z,84.50
2023-02-03T16:09:54.353Z,84.50
2023-02-03T16:13:21.420Z,84.50
2023-02-03T16:16:29.606Z,84.50
2023-02-03T16:19:40.617Z,84.50
2023-02-03T16:22:46.369Z,84.40
2023-02-03T16:26:08.466Z,84.50
2023-02-03T16:29:27.568Z,84.20
2023-02-03T16:32:46.536Z,84.30
2023-02-03T16:36:05.446Z,84.30
2023-02-03T16:39:27.020Z,84.20
2023-02-03T16:42:52.795Z,84.20
2023-02-03T16:46:13.678Z,84.10
2023-02-03T16:49:30.641Z,84.10
2023-02-03T16:52:38.394Z,84.00
2023-02-03T16:55:42.445Z,84.00
2023-02-03T16:58:48.213Z,84.10
2023-02-03T17:01:52.035Z,84.00
2023-02-03T17:04:58.001Z,84.00
2023-02-03T17:08:03.538Z,83.90
2023-02-03T17:11:12.856Z,84.00
2023-02-03T17:14:17.070Z,84.00
2023-02-03T17:17:22.929Z,84.00
2023-02-03T17:20:26.828Z,84.00
2023-02-03T17:23:34.687Z,84.10
2023-02-03T17:26:38.521Z,84.10
2023-02-03T17:29:44.329Z,84.00
2023-02-03T17:32:48.183Z,84.10
2023-02-03T17:36:02.747Z,84.10
2023-02-03T17:55:49.728Z,84.00
2023-02-03T17:58:57.314Z,84.00
2023-02-03T18:02:03.209Z,84.00
2023-02-03T18:05:07.860Z,84.00
2023-02-03T18:08:16.404Z,84.00
2023-02-03T18:11:22.922Z,84.00
2023-02-03T18:14:28.892Z,84.00
2023-02-03T18:17:32.457Z,84.10
2023-02-03T18:20:38.277Z,84.10
2023-02-03T18:23:42.720Z,84.10
2023-02-03T18:26:52.712Z,84.10
2023-02-03T18:29:56.497Z,84.10
2023-02-03T18:33:03.240Z,84.10
2023-02-03T18:36:08.337Z,84.80
2023-02-03T18:39:15.922Z,84.20
2023-02-03T18:42:22.278Z,84.20
2023-02-03T18:45:28.539Z,84.20
2023-02-03T18:48:32.836Z,84.20
2023-02-03T18:51:39.197Z,84.20
2023-02-03T18:54:43.011Z,84.20
2023-02-03T18:57:50.869Z,84.20
2023-02-03T19:00:55.470Z,84.20
2023-02-03T19:04:03.027Z,84.80
2023-02-03T19:07:06.871Z,84.30
2023-02-03T19:10:13.176Z,84.20
2023-02-03T19:13:19.008Z,84.30
2023-02-03T19:16:24.869Z,84.30
2023-02-03T19:19:28.774Z,84.30
2023-02-03T19:22:35.009Z,84.30
2023-02-03T19:25:39.035Z,84.40
2023-02-03T19:28:46.908Z,84.30
2023-02-03T19:31:50.884Z,84.30
2023-02-03T19:34:56.772Z,84.30
2023-02-03T19:38:01.355Z,84.30
2023-02-03T19:41:08.139Z,84.30
2023-02-03T19:44:15.395Z,84.30
2023-02-03T19:47:21.330Z,84.30
2023-02-03T19:50:25.128Z,84.30
2023-02-03T19:53:31.027Z,84.30
2023-02-03T19:56:34.596Z,84.30
2023-02-03T19:59:42.357Z,84.40
2023-02-03T20:02:46.340Z,84.30
2023-02-03T20:05:52.758Z,84.30
2023-02-03T20:08:58.573Z,85.00
2023-02-03T20:12:04.445Z,84.40
2023-02-03T20:15:10.312Z,84.40
2023-02-03T20:18:16.218Z,84.40
2023-02-03T20:21:20.105Z,84.40
2023-02-03T20:24:26.224Z,84.40
2023-02-03T20:27:30.024Z,84.40
2023-02-03T20:30:38.187Z,84.40
2023-02-03T20:33:42.039Z,84.40
2023-02-03T20:36:47.860Z,84.40
2023-02-03T20:39:51.688Z,84.40
2023-02-03T20:43:01.917Z,84.50
2023-02-03T20:46:11.686Z,84.50
2023-02-03T20:49:19.384Z,84.40
2023-02-03T20:52:23.479Z,84.50
2023-02-03T20:55:29.336Z,84.50
2023-02-03T20:58:36.580Z,85.20
2023-02-03T21:01:44.754Z,84.50
2023-02-03T21:04:58.785Z,84.40
2023-02-03T21:08:12.112Z,84.50
2023-02-03T21:11:17.619Z,84.50
2023-02-03T21:14:25.771Z,84.40
2023-02-03T21:17:37.050Z,84.50
2023-02-03T21:20:43.065Z,84.50
2023-02-03T21:23:47.921Z,84.50
2023-02-03T21:26:54.403Z,84.40
2023-02-03T21:29:58.975Z,84.40
2023-02-03T21:33:30.232Z,84.40
2023-02-03T21:36:36.930Z,84.40
2023-02-03T21:39:43.484Z,84.50
2023-02-03T21:42:48.263Z,84.40
2023-02-03T21:45:54.239Z,84.50
2023-02-03T21:49:00.840Z,84.40
2023-02-03T21:52:09.418Z,84.40
2023-02-03T21:55:17.517Z,84.40
2023-02-03T21:58:25.521Z,84.40
2023-02-03T22:01:36.900Z,84.40
2023-02-03T22:04:44.689Z,84.40
2023-02-03T22:07:48.530Z,84.40
2023-02-03T22:10:54.335Z,84.50
2023-02-03T22:13:58.481Z,84.40
2023-02-03T22:17:04.288Z,84.40
2023-02-03T22:20:10.464Z,84.50
2023-02-03T22:23:16.302Z,84.50
2023-02-03T22:26:19.970Z,84.40
2023-02-03T22:29:25.770Z,84.40
2023-02-03T22:32:29.937Z,84.40
2023-02-03T22:35:37.922Z,84.40
2023-02-03T22:38:42.705Z,84.50
2023-02-03T22:41:48.963Z,84.50
2023-02-03T22:44:52.856Z,84.60
2023-02-03T22:47:59.717Z,84.50
2023-02-03T22:51:05.707Z,84.60
2023-02-03T22:54:11.559Z,84.50
2023-02-03T22:57:15.143Z,84.60
2023-02-03T23:00:23.663Z,84.60
2023-02-03T23:03:31.314Z,84.50
2023-02-03T23:06:39.380Z,84.50
2023-02-03T23:09:43.444Z,84.50
2023-02-03T23:12:49.658Z,84.60
2023-02-03T23:15:55.646Z,84.60
2023-02-03T23:19:01.470Z,84.60
2023-02-03T23:22:07.246Z,84.60
2023-02-03T23:25:13.777Z,84.60
2023-02-03T23:28:17.725Z,84.70
2023-02-03T23:31:23.638Z,84.70
2023-02-03T23:34:40.412Z,84.70
2023-02-03T23:37:48.334Z,84.70
2023-02-03T23:40:53.586Z,84.70
2023-02-03T23:44:00.229Z,84.70
2023-02-03T23:47:04.317Z,84.80
2023-02-03T23:50:11.682Z,84.80
2023-02-03T23:53:17.580Z,84.80
2023-02-03T23:56:23.410Z,84.80
2023-02-03T23:59:27.043Z,84.80
